Tiempo atmosférico en la estación meteorológica de La Victoria de Acentejo, Santa Cruz de Tenerife (567 m.)



Fecha
DESCASC
Temp. máxima en grados centígrados (hora)
DESCASC
Temp. mínima en grados centígrados (hora)
DESCASC
Temp. media en grados centígrados
DESCASC
Racha de viento máxima en m/sg (hora)
DESCASC
Velocidad máxima media en intervalos de 10 minutos(hora)
DESCASC
Precipitaciones diarias en mm
DESCASC
Precipitaciones de 00:00 a 06:00 en mm
DESCASC
Precipitaciones de 06:00 a 12:00 en mm
DESCASC
Precipitaciones de 12:00 a 18:00 en mm
DESCASC
Precipitaciones de 18:00 a 24:00 en mm
DESCASC
30-12-2019 -- (--) -- (--) -- -- (--) -- (--) -- 0 0 0 --
31-12-2019 -- (--) -- (--) -- -- (--) -- (--) -- 0 0 0 --
11-01-2020 14.4 (12:10) 10.3 (00:00) 12.3 5.56 (14:20) 3.33 (13:50) 0.8 0.4 0 0 0.4
05-01-2020 17.7 (10:40) 7.5 (00:00) 12.6 6.39 (09:10) 4.72 (09:10) 0 0 0 0 0
03-01-2020 18.2 (16:30) 7.3 (00:00) 12.8 6.39 (20:20) 3.89 (04:40) 0 0 0 0 0
16-01-2020 18.3 (13:40) 7.8 (00:00) 13 6.11 (09:20) 5 (09:20) 0 0 0 0 0
15-01-2020 18.4 (14:50) 8 (00:00) 13.2 6.11 (06:10) 4.72 (06:30) 0 0 0 0 0
02-01-2020 18.4 (13:20) 8.2 (00:00) 13.3 6.11 (06:10) 3.89 (06:10) 0 0 0 0 0
09-01-2020 16.2 (14:00) 10.5 (00:00) 13.4 5.83 (15:40) 3.89 (03:00) 0.2 0.2 0 0 0
06-01-2020 16.9 (12:30) 9.9 (00:00) 13.4 7.22 (20:30) 4.44 (03:20) 3 1 0.6 0.2 1.2
08-01-2020 16.6 (14:40) 10.3 (00:00) 13.5 10 (15:50) 5.28 (14:20) 0.2 0 0.2 0 0
17-01-2020 19.6 (13:50) 7.5 (00:00) 13.6 5.28 (14:10) 3.61 (02:40) 0 0 0 0 0
07-01-2020 17.4 (14:30) 9.9 (00:00) 13.6 10.56 (11:10) 5.83 (18:30) 0.4 0.4 0 0 0
12-01-2020 17.9 (12:10) 9.6 (23:10) 13.8 8.61 (09:10) 4.72 (09:20) 0 0 0 0 0
04-01-2020 20 (12:20) 8.2 (00:00) 14.1 5.83 (08:10) 4.72 (08:20) 0 0 0 0 0
01-01-2020 19.2 (11:10) 8.9 (00:00) 14.1 5.28 (07:10) 4.17 (07:00) 0 0 0 0 0
13-01-2020 19.7 (13:10) 8.6 (00:00) 14.2 6.94 (09:10) 4.44 (09:10) 0 0 0 0 0
10-01-2020 16.6 (14:00) 12.4 (00:00) 14.5 8.06 (13:10) 4.72 (13:10) 1.6 0.2 0.8 0.6 0
22-12-2019 19.9 (15:30) 9.3 (07:50) 14.6 7.78 (22:20) 4.72 (01:50) 0 0 0 0 0
14-01-2020 19.5 (15:00) 9.9 (00:00) 14.7 8.33 (06:30) 4.44 (06:30) 0 0 0 0 0
19-12-2019 20.1 (15:50) 9.4 (06:50) 14.8 5.56 (21:40) 4.17 (21:40) 0 0 0 0 0
21-12-2019 20.2 (13:50) 9.9 (08:10) 15.1 6.11 (23:10) 4.17 (22:30) 0 0 0 0 0
23-12-2019 19.6 (10:30) 11.5 (00:00) 15.6 5.56 (00:30) 3.06 (07:30) 0 0 0 0 0
20-12-2019 20.9 (14:50) 10.5 (00:00) 15.7 5 (04:10) 3.89 (01:40) 0 0 0 0 0
27-12-2019 24.5 (16:00) 12.4 (00:00) 18.4 5.83 (23:20) 4.17 (19:40) 0 0 0 0 0
24-12-2019 25.3 (15:20) 11.8 (01:00) 18.5 6.39 (03:20) 3.61 (02:20) 0 0 0 0 0
25-12-2019 23 (10:40) 14 (00:00) 18.5 6.94 (12:30) 4.72 (20:10) 0 0 0 0 0
26-12-2019 24.6 (15:40) 12.5 (00:00) 18.6 18.06 (11:30) 8.89 (11:40) 0 0 0 0 0
29-12-2019 25.3 (15:20) 14 (00:00) 19.6 7.78 (09:20) 5.83 (04:50) 0 0 0 0 0
28-12-2019 26.2 (13:10) 15.7 (00:00) 21 5.28 (22:10) 4.17 (23:50) 0 0 0 0 0

Gráficas

Temp. máximas Temp. mínimas Temp. medias Precipitaciones Rachas de viento máximas Velocidades máximas media en intervalos de 10 minutos

Datos horarios

Fecha y hora oficial Temperatura (ºC) Velocidad del viento (km/h) Dirección del viento Racha (km/h) Dirección de racha Precipitación (mm) Presión (hPa) Tendencia (hPa) Humedad (%)
2020-01-17 23:00:00 9.1 6 Sur 14 Sudeste 0 -- -- 63
2020-01-17 22:00:00 9.2 9 Sudeste 12 Sudeste 0 -- -- 61
2020-01-17 21:00:00 9.7 7 Sur 10 Sur 0 -- -- 61
2020-01-17 20:00:00 9.9 6 Sur 9 Sudeste 0 -- -- 60
2020-01-17 19:00:00 11.1 8 Sudeste 11 Sudeste 0 -- -- 60
2020-01-17 18:00:00 17.8 3 Noroeste 10 Noroeste 0 -- -- 38
2020-01-17 17:00:00 18.5 6 Noroeste 12 Oeste 0 -- -- 38
2020-01-17 16:00:00 18.3 7 Noroeste 14 Noroeste 0 -- -- 35
2020-01-17 15:00:00 19.2 7 Noroeste 19 Noroeste 0 -- -- 27
2020-01-17 14:00:00 19.3 8 Noroeste 14 Noroeste 0 -- -- 24
2020-01-17 13:00:00 19 7 Noroeste 12 Noroeste 0 -- -- 29
2020-01-17 12:00:00 18.5 6 Noroeste 11 Oeste 0 -- -- 28
2020-01-17 11:00:00 18.9 4 Noroeste 8 Oeste 0 -- -- 26
2020-01-17 10:00:00 15.5 5 Sur 11 Sudeste 0 -- -- 26
2020-01-17 09:00:00 9.9 6 Sudeste 13 Sudeste 0 -- -- 32
2020-01-17 08:00:00 8.1 6 Sudeste 14 Sudeste 0 -- -- 53
2020-01-17 07:00:00 7.7 6 Sur 14 Sudeste 0 -- -- 64
2020-01-17 06:00:00 7.8 8 Sudeste 13 Sudeste 0 -- -- 56
2020-01-17 05:00:00 8.5 5 Sudeste 15 Sudeste 0 -- -- 41
2020-01-17 04:00:00 8.6 7 Sudeste 15 Sudeste 0 -- -- 43
2020-01-17 03:00:00 8.5 10 Sudeste 18 Sudeste 0 -- -- 43
2020-01-17 02:00:00 8.6 10 Sudeste 14 Sur 0 -- -- 42
2020-01-17 01:00:00 8.6 10 Sur 17 Sur 0 -- -- 43
2020-01-17 00:00:00 9.7 12 Sur 17 Sur 0 -- -- 41
2020-01-16 23:00:00 8.9 12 Sur 17 Sudeste 0 -- -- 44
2020-01-16 22:00:00 11.4 10 Sur 20 Sudoeste 0 -- -- 43
2020-01-16 21:00:00 9.9 14 Sudeste 19 Sudeste 0 -- -- 40
2020-01-16 20:00:00 10.8 12 Sur 18 Sudeste 0 -- -- 50
2020-01-16 19:00:00 11.8 14 Sudeste 17 Sudeste 0 -- -- 54
2020-01-16 18:00:00 16.8 3 Noroeste 12 Noroeste 0 -- -- 61
2020-01-16 17:00:00 18.1 6 Noroeste 13 Noroeste 0 -- -- 60
2020-01-16 16:00:00 18.1 8 Noroeste 16 Noroeste 0 -- -- 54
2020-01-16 15:00:00 17.7 10 Norte 16 Norte 0 -- -- 54
2020-01-16 14:00:00 18 8 Noroeste 15 Noroeste 0 -- -- 46
2020-01-16 13:00:00 17.9 8 Noroeste 13 Noroeste 0 -- -- 38
2020-01-16 12:00:00 17.6 3 Norte 9 Norte 0 -- -- 44
2020-01-16 11:00:00 17.2 4 Oeste 8 Sudeste 0 -- -- 46
2020-01-16 10:00:00 14.6 4 Sur 22 Sudeste 0 -- -- 39
2020-01-16 09:00:00 10 12 Sudeste 16 Sudeste 0 -- -- 46
2020-01-16 08:00:00 8.4 10 Sur 19 Sudeste 0 -- -- 48
2020-01-16 07:00:00 8.5 15 Sudeste 20 Sudeste 0 -- -- 47
2020-01-16 06:00:00 9.2 11 Sudeste 17 Sudeste 0 -- -- 45
2020-01-16 05:00:00 8.4 10 Sudeste 17 Sudeste 0 -- -- 49
2020-01-16 04:00:00 7.9 15 Sudeste 20 Sudeste 0 -- -- 54
2020-01-16 03:00:00 8.6 12 Sudeste 18 Sudeste 0 -- -- 65
2020-01-16 02:00:00 8.3 14 Sudeste 19 Sudeste 0 -- -- 53
2020-01-16 01:00:00 8.3 15 Sudeste 21 Sudeste 0 -- -- 53
2020-01-16 00:00:00 8 15 Sudeste 19 Sudeste 0 -- -- 58
2020-01-15 23:00:00 8.1 14 Sudeste 19 Sudeste 0 -- -- 59
2020-01-15 22:00:00 9.3 14 Sudeste 18 Sudeste 0 -- -- 56
2020-01-15 21:00:00 10.1 12 Sudeste 17 Sudeste 0 -- -- 56
2020-01-15 20:00:00 10.5 14 Sudeste 17 Sudeste 0 -- -- 56
2020-01-15 19:00:00 11.5 12 Sudeste 16 Sudeste 0 -- -- 61
2020-01-15 18:00:00 16.1 5 Noroeste 8 Noroeste 0 -- -- 43
2020-01-15 17:00:00 17.6 6 Noroeste 12 Norte 0 -- -- 38
2020-01-15 16:00:00 17.9 8 Noroeste 15 Noroeste 0 -- -- 36
2020-01-15 15:00:00 17.9 8 Noroeste 15 Noroeste 0 -- -- 48
2020-01-15 14:00:00 17.6 10 Noroeste 18 Norte 0 -- -- 42
2020-01-15 13:00:00 17.6 8 Noroeste 14 Oeste 0 -- -- 46
2020-01-15 12:00:00 17.1 4 Norte 12 Noroeste 0 -- -- 44
2020-01-15 11:00:00 16.9 3 Norte 8 Este 0 -- -- 46
2020-01-15 10:00:00 13.8 8 Sudeste 18 Sudeste 0 -- -- 50
2020-01-15 09:00:00 10 9 Sur 18 Sur 0 -- -- 52
2020-01-15 08:00:00 8.9 11 Sur 20 Sudeste 0 -- -- 63
2020-01-15 07:00:00 10.6 12 Sudeste 22 Sudeste 0 -- -- 44
2020-01-15 06:00:00 9 14 Sudeste 18 Sudeste 0 -- -- 62
2020-01-15 05:00:00 10.3 13 Sur 16 Sur 0 -- -- 60
2020-01-15 04:00:00 9.9 11 Sur 17 Sur 0 -- -- 70
2020-01-15 03:00:00 11.2 11 Sur 16 Sur 0 -- -- 71
2020-01-15 02:00:00 11.2 6 Sudoeste 15 Sur 0 -- -- 75
2020-01-15 01:00:00 11.6 11 Sur 20 Sudeste 0 -- -- 56
2020-01-15 00:00:00 10.2 12 Sur 17 Sudeste 0 -- -- 61
2020-01-14 23:00:00 10.5 12 Sur 17 Sur 0 -- -- 65
2020-01-14 22:00:00 10.8 11 Sur 17 Sur 0 -- -- 63
2020-01-14 21:00:00 11.3 12 Sur 15 Sur 0 -- -- 62
2020-01-14 20:00:00 11.5 6 Sudeste 21 Sudeste 0 -- -- 60
2020-01-14 19:00:00 12.4 11 Sudeste 14 Sudeste 0 -- -- 63
2020-01-14 18:00:00 16 5 Norte 16 Norte 0 -- -- 58
2020-01-14 17:00:00 17.5 8 Norte 15 Noroeste 0 -- -- 49
2020-01-14 16:00:00 18.7 9 Noroeste 17 Noroeste 0 -- -- 42
2020-01-14 15:00:00 19.5 6 Noroeste 14 Noroeste 0 -- -- 33
2020-01-14 14:00:00 19.1 9 Noroeste 14 Noroeste 0 -- -- 41
2020-01-14 13:00:00 18.5 7 Noroeste 15 Oeste 0 -- -- 38
2020-01-14 12:00:00 18.5 5 Noroeste 23 Sudeste 0 -- -- 36
2020-01-14 11:00:00 17.3 8 Sudoeste 23 Sudeste 0 -- -- 43
2020-01-14 10:00:00 15.9 13 Sur 22 Sur 0 -- -- 37
2020-01-14 09:00:00 15.3 15 Sur 23 Sur 0 -- -- 29
2020-01-14 08:00:00 13.8 8 Sudoeste 24 Sudeste 0 -- -- 33
2020-01-14 07:00:00 14.9 12 Sudoeste 30 Sur 0 -- -- 30
2020-01-14 06:00:00 14.4 10 Sudoeste 22 Sudoeste 0 -- -- 33
2020-01-14 05:00:00 12.1 8 Sudoeste 14 Sudoeste 0 -- -- 52
2020-01-14 04:00:00 11.2 4 Sudoeste 13 Sudeste 0 -- -- 50
2020-01-14 03:00:00 10.9 5 Sur 13 Sudoeste 0 -- -- 48
2020-01-14 02:00:00 12.2 8 Sur 15 Sur 0 -- -- 42
2020-01-14 01:00:00 13.4 9 Sur 19 Sudeste 0 -- -- 40
2020-01-14 00:00:00 12.9 12 Sudeste 18 Sur 0 -- -- 42
2020-01-13 23:00:00 12.3 8 Sur 15 Sur 0 -- -- 50
2020-01-13 22:00:00 10.9 4 Sudeste 13 Sur 0 -- -- 74
2020-01-13 21:00:00 10.9 8 Sudeste 10 Sudeste 0 -- -- 67
2020-01-13 20:00:00 13.7 9 Sudeste 20 Sudeste 0 -- -- 58
2020-01-13 19:00:00 13.4 10 Sudeste 16 Sudeste 0 -- -- 60
2020-01-13 18:00:00 16.9 3 Noroeste 9 Noroeste 0 -- -- 56
2020-01-13 17:00:00 18.1 5 Noroeste 14 Noroeste 0 -- -- 43
2020-01-13 16:00:00 19.2 7 Noroeste 15 Noroeste 0 -- -- 38
2020-01-13 15:00:00 19.4 9 Noroeste 16 Oeste 0 -- -- 38
2020-01-13 14:00:00 19.3 8 Oeste 18 Noroeste 0 -- -- 34
2020-01-13 13:00:00 19.1 4 Oeste 10 Oeste 0 -- -- 38
2020-01-13 12:00:00 17.9 3 Norte 9 Noroeste 0 -- -- 41
2020-01-13 11:00:00 17.5 4 Norte 8 Sudeste 0 -- -- 41
2020-01-13 10:00:00 14 4 Sudeste 25 Sudeste 0 -- -- 56
2020-01-13 09:00:00 9.6 15 Sudeste 19 Sudeste 0 -- -- 71
2020-01-13 08:00:00 9 14 Sudeste 21 Sudeste 0 -- -- 73
2020-01-13 07:00:00 9.7 12 Sur 15 Sur 0 -- -- 73
2020-01-13 06:00:00 10 11 Sur 15 Sur 0 -- -- 76
2020-01-13 05:00:00 8.8 10 Sur 21 Sudeste 0 -- -- 84
2020-01-13 04:00:00 9.2 15 Sudeste 19 Sudeste 0 -- -- 83
2020-01-13 03:00:00 9.7 15 Sudeste 18 Sudeste 0 -- -- 85
2020-01-13 02:00:00 8.9 9 Sudeste 15 Sudeste 0 -- -- 89
2020-01-13 01:00:00 9.8 10 Sur 13 Sur 0 -- -- 86
2020-01-13 00:00:00 9.9 8 Sur 12 Sur 0 -- -- 85
2020-01-12 23:00:00 9.7 9 Sudeste 13 Sudeste 0 -- -- 86
2020-01-12 22:00:00 11 9 Sur 21 Sudeste 0 -- -- 82
2020-01-12 21:00:00 11.6 9 Sur 16 Sur 0 -- -- 77
2020-01-12 20:00:00 11.9 12 Sur 14 Sur 0 -- -- 76
2020-01-12 19:00:00 13.6 5 Sur 6 Sur 0 -- -- 79
2020-01-12 18:00:00 14.4 3 Oeste 12 Oeste 0 -- -- 74
2020-01-12 17:00:00 15.3 4 Noroeste 12 Sudoeste 0 -- -- 70
2020-01-12 16:00:00 16.1 7 Noroeste 19 Oeste 0 -- -- 64
2020-01-12 15:00:00 16.6 9 Oeste 17 Noroeste 0 -- -- 63
2020-01-12 14:00:00 17.4 10 Noroeste 22 Oeste 0 -- -- 60
2020-01-12 13:00:00 17.2 9 Oeste 20 Oeste 0 -- -- 61
2020-01-12 12:00:00 17.2 7 Oeste 14 Oeste 0 -- -- 59
2020-01-12 11:00:00 15.1 7 Oeste 25 Este 0 -- -- 66
2020-01-12 10:00:00 13.8 12 Este 31 Este 0 -- -- 70
2020-01-12 09:00:00 12.7 6 Este 12 Nordeste 0 -- -- 82
2020-01-12 08:00:00 11.9 0 Calma 11 Sudeste 0 -- -- 83
2020-01-12 07:00:00 12.2 7 Sudeste 12 Sudeste 0 -- -- 77
2020-01-12 06:00:00 12.2 7 Sur 14 Este 0 -- -- 78
2020-01-12 05:00:00 12.2 8 Sudeste 13 Sudeste 0 -- -- 82
2020-01-12 04:00:00 11.6 4 Sudeste 15 Sudeste 0 -- -- 85
2020-01-12 03:00:00 11.8 9 Sudeste 12 Sudeste 0 -- -- 82
2020-01-12 02:00:00 11.7 8 Sudeste 14 Este 0 -- -- 87
2020-01-12 01:00:00 12.2 10 Este 20 Este 0 -- -- 79
2020-01-12 00:00:00 11.7 6 Este 13 Este 0.2 -- -- 89
2020-01-11 23:00:00 11.7 10 Este 18 Este 0 -- -- 87
2020-01-11 22:00:00 11.3 8 Sudeste 17 Sudeste 0 -- -- 91
2020-01-11 21:00:00 11.7 5 Sudeste 19 Este 0.2 -- -- 87
2020-01-11 20:00:00 12.5 7 Sudeste 13 Este 0 -- -- 77
2020-01-11 19:00:00 12.2 4 Este 16 Nordeste 0 -- -- 87
2020-01-11 18:00:00 12.9 6 Este 18 Nordeste 0 -- -- 85
2020-01-11 17:00:00 14 11 Nordeste 18 Nordeste 0 -- -- 82
2020-01-11 16:00:00 14.4 5 Norte 14 Nordeste 0 -- -- 69
2020-01-11 15:00:00 14 8 Nordeste 20 Norte 0 -- -- 74
2020-01-11 14:00:00 13.8 11 Nordeste 19 Nordeste 0 -- -- 80
2020-01-11 13:00:00 13.7 7 Nordeste 13 Nordeste 0 -- -- 81
2020-01-11 12:00:00 14 4 Nordeste 13 Este 0 -- -- 75
2020-01-11 11:00:00 13.9 7 Sur 15 Este 0 -- -- 71
2020-01-11 10:00:00 13 8 Este 16 Sur 0 -- -- 80
2020-01-11 09:00:00 12.2 8 Sur 16 Sudeste 0 -- -- 80
2020-01-11 08:00:00 11.5 10 Sudeste 17 Sudeste 0 -- -- 84
2020-01-11 07:00:00 11.3 7 Sudeste 14 Sudeste 0 -- -- 87
2020-01-11 06:00:00 10.3 11 Sudeste 14 Sudeste 0 -- -- 89
2020-01-11 05:00:00 12.2 7 Este 15 Este 0 -- -- 89
2020-01-11 04:00:00 12.3 6 Sudeste 14 Este 0 -- -- 92
2020-01-11 03:00:00 12.7 9 Este 17 Nordeste 0 -- -- 91
2020-01-11 02:00:00 13 5 Sudeste 15 Este 0.2 -- -- 90
2020-01-11 01:00:00 12.7 8 Sur 14 Sur 0.2 -- -- 89
2020-01-11 00:00:00 13.1 8 Sudeste 17 Sudeste 0 -- -- 90
2020-01-10 23:00:00 13.1 8 Sudeste 17 Sur 0 -- -- 88
2020-01-10 22:00:00 13.2 5 Este 17 Este 0 -- -- 88
2020-01-10 21:00:00 13.8 12 Este 19 Este 0 -- -- 79
2020-01-10 20:00:00 13.3 8 Sudeste 16 Sudeste 0 -- -- 79
2020-01-10 19:00:00 14.4 2 Nordeste 26 Este 0 -- -- 77
2020-01-10 18:00:00 14.4 14 Sudeste 26 Sudeste 0 -- -- 76
2020-01-10 17:00:00 15.2 9 Norte 25 Este 0 -- -- 85
2020-01-10 16:00:00 15.9 10 Nordeste 27 Este 0 -- -- 78
2020-01-10 15:00:00 15.3 12 Nordeste 24 Norte 0 -- -- 87
2020-01-10 14:00:00 16.6 7 Nordeste 29 Nordeste 0.2 -- -- 86
2020-01-10 13:00:00 15.3 12 Nordeste 27 Nordeste 0.4 -- -- 91
2020-01-10 12:00:00 14.9 9 Norte 15 Norte 0 -- -- 93
2020-01-10 11:00:00 14.5 11 Norte 18 Norte 0 -- -- 90
2020-01-10 10:00:00 14 0 Calma 9 Sudoeste 0.2 -- -- 93
2020-01-10 09:00:00 13.4 0 Calma 13 Sudeste 0.2 -- -- 92
2020-01-10 08:00:00 13 0 Calma 18 Sudeste 0.2 -- -- 89
2020-01-10 07:00:00 12.7 4 Nordeste 16 Sudeste 0.2 -- -- 90
2020-01-10 06:00:00 13.4 8 Sudeste 15 Este 0 -- -- 81
2020-01-10 05:00:00 13.1 8 Sudeste 12 Sudeste 0.2 -- -- 83
2020-01-10 04:00:00 13.4 5 Sudeste 21 Sudeste 0 -- -- 80
2020-01-10 03:00:00 13 6 Este 18 Sudeste 0 -- -- 87
2020-01-10 02:00:00 13.2 9 Este 25 Sudeste 0 -- -- 83
2020-01-10 01:00:00 13.3 9 Sudeste 15 Sudeste 0 -- -- 78
2020-01-10 00:00:00 13.1 8 Sudeste 14 Sur 0 -- -- 74
2020-01-09 23:00:00 13 7 Sur 13 Sudeste 0 -- -- 74
2020-01-09 22:00:00 13 7 Sur 14 Sudoeste 0 -- -- 76
2020-01-09 21:00:00 13 7 Sur 12 Sur 0 -- -- 76
2020-01-09 20:00:00 12.8 4 Sur 15 Este 0 -- -- 78
2020-01-09 19:00:00 13 5 Este 14 Nordeste 0 -- -- 83
2020-01-09 18:00:00 13.8 11 Norte 18 Nordeste 0 -- -- 73
2020-01-09 17:00:00 14.4 8 Nordeste 19 Nordeste 0 -- -- 70
2020-01-09 16:00:00 15.4 10 Norte 21 Norte 0 -- -- 70
2020-01-09 15:00:00 15.1 9 Nordeste 20 Norte 0 -- -- 67
2020-01-09 14:00:00 16.2 6 Nordeste 17 Noroeste 0 -- -- 61
2020-01-09 13:00:00 14.3 9 Nordeste 19 Norte 0 -- -- 71
2020-01-09 12:00:00 14.3 5 Sur 17 Este 0 -- -- 72
2020-01-09 11:00:00 13.7 5 Nordeste 15 Este 0 -- -- 71
2020-01-09 10:00:00 13 6 Este 20 Este 0 -- -- 81
2020-01-09 09:00:00 12.2 5 Este 13 Este 0 -- -- 87
2020-01-09 08:00:00 10.8 8 Sudeste 14 Sudeste 0 -- -- 85
2020-01-09 07:00:00 11.6 8 Sudeste 15 Este 0 -- -- 86
2020-01-09 06:00:00 11.7 6 Sudeste 13 Sudeste 0.2 -- -- 86
2020-01-09 05:00:00 11.7 6 Este 14 Sudeste 0 -- -- 81
2020-01-09 04:00:00 11 8 Sudeste 17 Sudeste 0 -- -- 83
2020-01-09 03:00:00 10.5 14 Sudeste 16 Sudeste 0 -- -- 81
2020-01-09 02:00:00 11.3 10 Sudeste 17 Sudeste 0 -- -- 82
2020-01-09 01:00:00 11.3 9 Sudeste 13 Sudeste 0 -- -- 84
2020-01-09 00:00:00 11.9 8 Sudeste 13 Sudeste 0 -- -- 83
2020-01-08 23:00:00 12.1 7 Sudeste 16 Sudeste 0 -- -- 81
2020-01-08 22:00:00 10.9 8 Sudeste 15 Sudeste 0 -- -- 81
2020-01-08 21:00:00 11.2 9 Sudeste 13 Sudeste 0 -- -- 86
2020-01-08 20:00:00 10.5 10 Sudeste 13 Sudeste 0 -- -- 86
2020-01-08 19:00:00 11.2 8 Sudeste 10 Este 0 -- -- 84
2020-01-08 18:00:00 13.1 4 Este 20 Nordeste 0 -- -- 74
2020-01-08 17:00:00 14.1 14 Nordeste 28 Nordeste 0 -- -- 71
2020-01-08 16:00:00 16.1 15 Nordeste 36 Norte 0 -- -- 67
2020-01-08 15:00:00 15.8 18 Nordeste 31 Norte 0 -- -- 67
2020-01-08 14:00:00 16 17 Nordeste 28 Nordeste 0 -- -- 67
2020-01-08 13:00:00 15.8 13 Nordeste 25 Nordeste 0 -- -- 65
2020-01-08 12:00:00 15.6 11 Nordeste 22 Nordeste 0 -- -- 60
2020-01-08 11:00:00 14.4 12 Nordeste 26 Este 0 -- -- 69
2020-01-08 10:00:00 13.1 8 Sudeste 24 Sudeste 0 -- -- 74
2020-01-08 09:00:00 12.5 15 Sudeste 27 Sudeste 0 -- -- 75
2020-01-08 08:00:00 12.4 9 Sudeste 24 Sudeste 0.2 -- -- 81
2020-01-08 07:00:00 11.5 4 Este 13 Sudeste 0 -- -- 82
2020-01-08 06:00:00 11.1 8 Sudeste 17 Sudeste 0 -- -- 76
2020-01-08 05:00:00 11.1 9 Sudeste 19 Sudeste 0 -- -- 71
2020-01-08 04:00:00 11.2 10 Sudeste 26 Sudeste 0 -- -- 74
2020-01-08 03:00:00 11.1 10 Sudeste 24 Sudeste 0 -- -- 64
2020-01-08 02:00:00 11.2 15 Sudeste 21 Sudeste 0 -- -- 71
2020-01-08 01:00:00 11.4 15 Sudeste 20 Sudeste 0 -- -- 68
2020-01-08 00:00:00 10.5 13 Sudeste 23 Sudeste 0 -- -- 74
2020-01-07 23:00:00 10.7 15 Sudeste 23 Sudeste 0 -- -- 62
2020-01-07 22:00:00 11.7 14 Sudeste 21 Sudeste 0 -- -- 60
2020-01-07 21:00:00 11.5 17 Sudeste 23 Sudeste 0 -- -- 59
2020-01-07 20:00:00 11.6 15 Sur 28 Sudeste 0 -- -- 43
2020-01-07 19:00:00 12.2 17 Sudeste 29 Sudeste 0 -- -- 65
2020-01-07 18:00:00 14.6 19 Este 27 Este 0 -- -- 63
2020-01-07 17:00:00 17.2 6 Este 28 Sudeste 0 -- -- 51
2020-01-07 16:00:00 17.2 12 Este 30 Este 0 -- -- 55
2020-01-07 15:00:00 16.8 17 Sudeste 36 Este 0 -- -- 55
2020-01-07 14:00:00 16.4 11 Sudeste 31 Este 0 -- -- 56
2020-01-07 13:00:00 15.6 11 Este 28 Este 0 -- -- 61
2020-01-07 12:00:00 15.3 9 Este 38 Este 0 -- -- 64
2020-01-07 11:00:00 13.3 12 Este 35 Este 0 -- -- 78
2020-01-07 10:00:00 13 18 Este 31 Este 0 -- -- 74
2020-01-07 09:00:00 12.6 12 Este 30 Este 0 -- -- 77
2020-01-07 08:00:00 12.2 18 Sudeste 32 Sudeste 0 -- -- 72
2020-01-07 07:00:00 11.5 9 Sudeste 15 Sudeste 0 -- -- 81
2020-01-07 06:00:00 10.6 14 Sudeste 17 Sudeste 0 -- -- 80
2020-01-07 05:00:00 10.3 8 Sudeste 14 Sudeste 0 -- -- 86
2020-01-07 04:00:00 10 8 Sudeste 13 Sudeste 0 -- -- 83
2020-01-07 03:00:00 12 4 Sudeste 14 Este 0 -- -- 86
2020-01-07 02:00:00 12.2 6 Este 22 Nordeste 0.2 -- -- 89
2020-01-07 01:00:00 12.2 6 Este 15 Nordeste 0.2 -- -- 90
2020-01-07 00:00:00 11.6 5 Sur 13 Nordeste 0 -- -- 88
2020-01-06 23:00:00 12.3 6 Este 19 Este 0 -- -- 91
2020-01-06 22:00:00 12.1 4 Noroeste 11 Nordeste 0 -- -- 93
2020-01-06 21:00:00 12.3 6 Oeste 26 Norte 1.2 -- -- 94
2020-01-06 20:00:00 13.1 6 Oeste 13 Norte 0 -- -- 85
2020-01-06 19:00:00 13.1 6 Noroeste 15 Noroeste 0 -- -- 84
2020-01-06 18:00:00 14.3 12 Noroeste 16 Noroeste 0 -- -- 77
2020-01-06 17:00:00 14.5 12 Noroeste 21 Noroeste 0 -- -- 75
2020-01-06 16:00:00 15.4 11 Oeste 17 Oeste 0.2 -- -- 70
2020-01-06 15:00:00 14.3 6 Norte 16 Noroeste 0 -- -- 75
2020-01-06 14:00:00 15.6 4 Oeste 18 Noroeste 0 -- -- 63
2020-01-06 13:00:00 15.2 6 Noroeste 14 Noroeste 0 -- -- 60
2020-01-06 12:00:00 14.8 6 Nordeste 14 Sudoeste 0 -- -- 69
2020-01-06 11:00:00 14.9 5 Sur 13 Sur 0 -- -- 67
2020-01-06 10:00:00 14.2 8 Sur 15 Este 0 -- -- 74
2020-01-06 09:00:00 12 6 Sudeste 15 Este 0 -- -- 89